createdAt,value
2018-03-22T00:00:13.176Z,10.97
2018-03-22T00:02:45.790Z,11.40
2018-03-22T00:05:18.357Z,11.07
2018-03-22T00:07:50.950Z,11.47
2018-03-22T00:10:23.510Z,13.33
2018-03-22T00:12:56.080Z,13.27
2018-03-22T00:15:28.661Z,11.87
2018-03-22T00:18:01.228Z,13.00
2018-03-22T00:20:33.773Z,13.50
2018-03-22T00:23:06.344Z,13.23
2018-03-22T00:25:38.900Z,14.30
2018-03-22T00:28:11.489Z,14.20
2018-03-22T00:30:44.051Z,13.37
2018-03-22T00:33:16.614Z,16.17
2018-03-22T00:35:49.196Z,15.37
2018-03-22T00:38:21.766Z,15.10
2018-03-22T00:40:54.316Z,14.57
2018-03-22T00:43:26.876Z,15.50
2018-03-22T00:45:59.435Z,16.00
2018-03-22T00:48:32.002Z,15.60
2018-03-22T00:51:04.622Z,16.83
2018-03-22T00:53:37.192Z,16.33
2018-03-22T00:56:09.920Z,17.23
2018-03-22T00:58:42.492Z,17.47
2018-03-22T01:01:15.060Z,16.93
2018-03-22T01:03:47.628Z,17.27
2018-03-22T01:06:20.168Z,17.60
2018-03-22T01:08:52.803Z,18.33
2018-03-22T01:11:25.358Z,16.67
2018-03-22T01:13:57.944Z,18.27
2018-03-22T01:16:30.519Z,18.20
2018-03-22T01:19:03.093Z,19.00
2018-03-22T01:21:35.643Z,18.80
2018-03-22T01:24:08.206Z,20.37
2018-03-22T01:26:40.757Z,18.97
2018-03-22T01:29:13.344Z,19.43
2018-03-22T01:31:45.881Z,20.50
2018-03-22T01:34:18.461Z,19.37
2018-03-22T01:36:51.008Z,18.97
2018-03-22T01:39:23.583Z,19.43
2018-03-22T01:41:56.130Z,19.23
2018-03-22T01:44:28.756Z,20.20
2018-03-22T01:47:01.322Z,21.03
2018-03-22T01:49:33.887Z,19.50
2018-03-22T01:52:06.440Z,20.37
2018-03-22T01:54:39.012Z,18.70
2018-03-22T01:57:11.568Z,20.77
2018-03-22T01:59:44.149Z,20.63
2018-03-22T02:02:16.680Z,21.23
2018-03-22T02:04:49.245Z,20.37
2018-03-22T02:07:21.785Z,20.83
2018-03-22T02:09:54.381Z,20.40
2018-03-22T02:12:26.924Z,21.10
2018-03-22T02:14:59.498Z,20.23
2018-03-22T02:17:32.022Z,21.53
2018-03-22T02:20:04.575Z,21.30
2018-03-22T02:22:37.111Z,20.00
2018-03-22T02:25:09.719Z,20.97
2018-03-22T02:27:42.308Z,21.13
2018-03-22T02:30:14.889Z,21.57
2018-03-22T02:32:47.428Z,22.53
2018-03-22T02:35:20.000Z,22.00
2018-03-22T02:37:52.553Z,23.37
2018-03-22T02:40:25.130Z,22.57
2018-03-22T02:42:57.672Z,24.47
2018-03-22T02:45:30.258Z,23.20
2018-03-22T02:48:02.823Z,23.83
2018-03-22T02:50:35.414Z,24.50
2018-03-22T02:53:07.969Z,27.23
2018-03-22T02:55:40.543Z,26.00
2018-03-22T02:58:13.089Z,25.17
2018-03-22T03:00:45.656Z,24.37
2018-03-22T03:03:18.200Z,27.43
2018-03-22T03:05:50.778Z,25.30
2018-03-22T03:08:23.374Z,24.30
2018-03-22T03:10:55.968Z,24.83
2018-03-22T03:13:28.523Z,22.63
2018-03-22T03:16:01.091Z,23.33
2018-03-22T03:18:33.689Z,24.50
2018-03-22T03:21:06.261Z,25.27
2018-03-22T03:23:38.831Z,25.23
2018-03-22T03:26:11.401Z,25.53
2018-03-22T03:28:43.996Z,25.63
2018-03-22T03:31:16.568Z,26.70
2018-03-22T03:33:49.146Z,27.50
2018-03-22T03:36:21.696Z,26.57
2018-03-22T03:38:54.283Z,23.67
2018-03-22T03:41:26.923Z,25.63
2018-03-22T03:43:59.467Z,25.93
2018-03-22T03:46:32.019Z,23.87
2018-03-22T03:51:41.724Z,27.33
2018-03-22T03:54:14.305Z,25.77
2018-03-22T03:56:46.966Z,25.57
2018-03-22T03:59:19.494Z,27.67
2018-03-22T04:01:51.974Z,28.30
2018-03-22T04:04:24.498Z,26.87
2018-03-22T04:06:56.975Z,27.60
2018-03-22T04:09:29.476Z,25.27
2018-03-22T04:12:01.955Z,26.43
2018-03-22T04:14:34.458Z,27.27
2018-03-22T04:17:06.999Z,29.03
2018-03-22T04:19:39.726Z,27.97
2018-03-22T04:22:12.491Z,29.20
2018-03-22T04:24:45.071Z,28.23
2018-03-22T04:27:17.644Z,26.53
2018-03-22T04:29:50.162Z,29.20
2018-03-22T04:32:22.654Z,29.43
2018-03-22T04:34:55.178Z,28.37
2018-03-22T04:37:27.652Z,28.53
2018-03-22T04:40:00.155Z,27.30
2018-03-22T04:42:32.636Z,34.17
2018-03-22T04:45:05.138Z,32.20
2018-03-22T04:47:37.656Z,31.43
2018-03-22T04:50:10.440Z,31.30
2018-03-22T04:52:43.041Z,30.20
2018-03-22T04:55:15.577Z,40.70
2018-03-22T04:57:48.083Z,38.33
2018-03-22T05:00:20.669Z,32.60
2018-03-22T05:02:53.169Z,31.40
2018-03-22T05:05:25.673Z,43.53
2018-03-22T05:07:58.158Z,31.87
2018-03-22T05:10:30.646Z,38.50
2018-03-22T05:13:03.126Z,37.43
2018-03-22T05:15:40.353Z,37.10
2018-03-22T05:18:12.871Z,36.97
2018-03-22T05:20:45.379Z,37.87
2018-03-22T05:23:17.870Z,35.20
2018-03-22T05:25:50.366Z,44.90
2018-03-22T05:28:22.892Z,43.67
2018-03-22T05:30:55.396Z,32.37
2018-03-22T05:33:27.884Z,43.70
2018-03-22T05:36:00.379Z,38.00
2018-03-22T05:38:32.858Z,46.57
2018-03-22T05:41:05.359Z,38.27
2018-03-22T05:43:37.870Z,35.93
2018-03-22T05:46:10.612Z,39.43
2018-03-22T05:48:43.135Z,38.10
2018-03-22T05:51:15.670Z,41.63
2018-03-22T05:53:48.180Z,50.60
2018-03-22T05:56:20.682Z,38.30
2018-03-22T05:58:53.164Z,41.50
2018-03-22T06:01:25.662Z,36.87
2018-03-22T06:03:58.150Z,38.73
2018-03-22T06:06:30.643Z,41.10
2018-03-22T06:09:03.119Z,39.50
2018-03-22T06:11:35.622Z,39.40
2018-03-22T06:14:08.175Z,39.60
2018-03-22T06:16:40.706Z,35.33
2018-03-22T06:19:13.257Z,43.43
2018-03-22T06:21:45.799Z,43.70
2018-03-22T06:24:18.294Z,47.13
2018-03-22T06:26:50.802Z,42.20
2018-03-22T06:29:23.289Z,49.30
2018-03-22T06:31:55.798Z,56.90
2018-03-22T06:34:28.271Z,44.97
2018-03-22T06:37:00.779Z,45.80
2018-03-22T06:39:33.251Z,45.80
2018-03-22T06:42:05.754Z,48.03
2018-03-22T06:44:38.474Z,46.40
2018-03-22T06:47:11.215Z,54.83
2018-03-22T06:49:43.761Z,50.77
2018-03-22T06:52:16.303Z,49.77
2018-03-22T06:54:48.826Z,50.90
2018-03-22T06:57:21.367Z,48.30
2018-03-22T06:59:53.867Z,47.07
2018-03-22T07:02:26.368Z,51.70
2018-03-22T07:04:58.866Z,43.90
2018-03-22T07:07:31.350Z,47.63
2018-03-22T07:10:03.855Z,44.50
2018-03-22T07:12:36.336Z,47.40
2018-03-22T07:15:09.543Z,46.10
2018-03-22T07:17:42.094Z,44.90
2018-03-22T07:20:14.658Z,49.77
2018-03-22T07:22:47.211Z,41.43
2018-03-22T07:25:19.748Z,46.87
2018-03-22T07:27:52.242Z,45.23
2018-03-22T07:30:24.746Z,41.07
2018-03-22T07:32:57.222Z,45.07
2018-03-22T07:35:29.722Z,37.37
2018-03-22T07:38:02.199Z,38.57
2018-03-22T07:40:34.784Z,38.07
2018-03-22T07:43:12.860Z,36.43
2018-03-22T07:45:45.433Z,29.27
2018-03-22T07:48:17.950Z,31.43
2018-03-22T07:50:50.485Z,33.20
2018-03-22T07:53:22.970Z,31.20
2018-03-22T07:55:55.467Z,26.60
2018-03-22T07:58:27.945Z,30.33
2018-03-22T08:01:00.443Z,35.97
2018-03-22T08:03:32.921Z,41.20
2018-03-22T08:06:05.418Z,29.47
2018-03-22T08:08:37.973Z,26.13
2018-03-22T08:11:10.674Z,29.60
2018-03-22T08:13:45.332Z,32.07
2018-03-22T08:16:20.004Z,24.67
2018-03-22T08:18:52.492Z,27.47
2018-03-22T08:21:24.986Z,28.47
2018-03-22T08:23:57.461Z,23.43
2018-03-22T08:26:29.968Z,26.13
2018-03-22T08:29:02.453Z,28.80
2018-03-22T08:31:34.953Z,31.50
2018-03-22T08:34:07.859Z,27.77
2018-03-22T08:36:40.450Z,23.23
2018-03-22T08:39:13.011Z,24.50
2018-03-22T08:41:45.572Z,25.57
2018-03-22T08:44:18.091Z,30.40
2018-03-22T08:46:50.590Z,24.83
2018-03-22T08:49:23.062Z,23.90
2018-03-22T08:51:55.563Z,32.70
2018-03-22T08:54:28.042Z,27.87
2018-03-22T08:57:00.539Z,26.53
2018-03-22T08:59:33.014Z,29.97
2018-03-22T09:02:05.510Z,27.33
2018-03-22T09:04:38.023Z,27.10
2018-03-22T09:07:10.680Z,24.60
2018-03-22T09:09:43.317Z,28.73
2018-03-22T09:12:15.954Z,29.93
2018-03-22T09:14:48.453Z,28.03
2018-03-22T09:17:20.960Z,27.63
2018-03-22T09:19:53.434Z,25.60
2018-03-22T09:22:25.948Z,32.03
2018-03-22T09:24:58.430Z,26.13
2018-03-22T09:27:30.934Z,28.00
2018-03-22T09:30:03.411Z,28.57
2018-03-22T09:32:35.910Z,26.67
2018-03-22T09:35:08.835Z,29.20
2018-03-22T09:37:41.461Z,33.40
2018-03-22T09:40:14.030Z,30.07
2018-03-22T09:42:46.602Z,31.67
2018-03-22T09:45:19.143Z,26.67
2018-03-22T09:47:51.638Z,31.60
2018-03-22T09:50:24.119Z,32.73
2018-03-22T09:52:56.615Z,35.40
2018-03-22T09:55:29.106Z,28.20
2018-03-22T09:58:01.607Z,29.77
2018-03-22T10:00:34.092Z,25.80
2018-03-22T10:03:06.609Z,33.33
2018-03-22T10:05:39.235Z,29.83
2018-03-22T10:08:11.867Z,25.20
2018-03-22T10:10:44.377Z,30.50
2018-03-22T10:13:16.904Z,29.07
2018-03-22T10:15:49.402Z,23.10
2018-03-22T10:18:21.899Z,27.63
2018-03-22T10:20:54.378Z,29.43
2018-03-22T10:23:26.875Z,26.53
2018-03-22T10:25:59.378Z,27.10
2018-03-22T10:28:31.858Z,26.23
2018-03-22T10:31:04.359Z,31.67
2018-03-22T10:33:36.855Z,29.43
2018-03-22T10:36:09.433Z,33.07
2018-03-22T10:38:42.110Z,25.90
2018-03-22T10:41:14.666Z,28.57
2018-03-22T10:43:47.172Z,23.37
2018-03-22T10:46:19.699Z,25.53
2018-03-22T10:48:52.186Z,24.43
2018-03-22T10:51:24.686Z,23.97
2018-03-22T10:53:57.228Z,26.03
2018-03-22T10:56:29.682Z,26.33
2018-03-22T10:59:02.157Z,22.93
2018-03-22T11:01:40.423Z,21.73
2018-03-22T11:04:12.943Z,26.37
2018-03-22T11:06:45.444Z,23.07
2018-03-22T11:09:17.979Z,21.83
2018-03-22T11:11:50.475Z,23.60
2018-03-22T11:14:22.959Z,20.23
2018-03-22T11:16:55.464Z,22.57
2018-03-22T11:19:27.942Z,19.73
2018-03-22T11:22:00.438Z,19.17
2018-03-22T11:24:32.915Z,20.03
2018-03-22T11:27:05.420Z,20.47
2018-03-22T11:29:37.948Z,21.43
2018-03-22T11:32:10.747Z,26.27
2018-03-22T11:34:43.284Z,26.87
2018-03-22T11:37:15.877Z,21.57
2018-03-22T11:39:48.367Z,18.63
2018-03-22T11:42:20.875Z,17.83
2018-03-22T11:44:53.354Z,18.00
2018-03-22T11:47:25.846Z,19.13
2018-03-22T11:49:58.327Z,17.10
2018-03-22T11:52:30.826Z,18.03
2018-03-22T11:55:03.312Z,16.93
2018-03-22T11:57:35.810Z,15.53
2018-03-22T12:00:08.330Z,15.97
2018-03-22T12:02:40.954Z,14.83
2018-03-22T12:05:13.508Z,15.93
2018-03-22T12:07:46.062Z,16.33
2018-03-22T12:10:18.547Z,14.90
2018-03-22T12:12:51.046Z,13.47
2018-03-22T12:15:23.527Z,14.20
2018-03-22T12:17:56.035Z,15.50
2018-03-22T12:20:28.516Z,13.03
2018-03-22T12:23:01.019Z,11.93
2018-03-22T12:25:33.493Z,11.97
2018-03-22T12:28:05.994Z,14.03
2018-03-22T12:30:38.525Z,11.50
2018-03-22T12:33:11.064Z,11.17
2018-03-22T12:35:43.631Z,12.17
2018-03-22T12:38:16.167Z,11.80
2018-03-22T12:40:48.662Z,10.83
2018-03-22T12:43:21.233Z,11.27
2018-03-22T12:45:53.670Z,11.20
2018-03-22T12:48:26.174Z,10.73
2018-03-22T12:50:58.655Z,10.53
2018-03-22T12:53:31.158Z,10.33
2018-03-22T12:56:03.632Z,10.67
2018-03-22T12:58:36.134Z,10.17
2018-03-22T13:01:08.782Z,9.60
2018-03-22T13:03:41.510Z,10.00
2018-03-22T13:06:14.049Z,9.40
2018-03-22T13:08:46.646Z,9.20
2018-03-22T13:11:19.132Z,9.97
2018-03-22T13:13:51.630Z,9.40
2018-03-22T13:16:24.102Z,8.80
2018-03-22T13:18:56.602Z,9.43
2018-03-22T13:21:29.083Z,9.40
2018-03-22T13:24:01.584Z,9.40
2018-03-22T13:26:34.075Z,8.50
2018-03-22T13:29:06.574Z,8.63
2018-03-22T13:31:39.118Z,8.13
2018-03-22T13:34:11.694Z,8.13
2018-03-22T13:36:44.198Z,8.43
2018-03-22T13:39:16.766Z,9.07
2018-03-22T13:41:49.256Z,8.80
2018-03-22T13:44:21.766Z,7.27
2018-03-22T13:46:54.255Z,7.83
2018-03-22T13:49:26.766Z,6.90
2018-03-22T13:51:59.253Z,7.40
2018-03-22T13:54:31.750Z,6.80
2018-03-22T13:57:04.241Z,7.10
2018-03-22T13:59:36.741Z,6.97
2018-03-22T14:02:09.341Z,7.27
2018-03-22T14:04:41.880Z,6.17
2018-03-22T14:07:14.452Z,8.93
2018-03-22T14:09:46.962Z,7.20
2018-03-22T14:12:19.494Z,6.87
2018-03-22T14:14:51.966Z,5.93
2018-03-22T14:17:24.456Z,4.70
2018-03-22T14:19:56.934Z,4.20
2018-03-22T14:22:29.425Z,4.00
2018-03-22T14:25:01.907Z,4.03
2018-03-22T14:27:34.417Z,3.60
2018-03-22T14:30:06.920Z,4.20
2018-03-22T14:32:39.522Z,3.30
2018-03-22T14:35:12.046Z,3.30
2018-03-22T14:37:44.573Z,3.23
2018-03-22T14:40:17.071Z,3.30
2018-03-22T14:42:49.574Z,3.20
2018-03-22T14:45:22.046Z,3.20
2018-03-22T14:47:54.542Z,3.63
2018-03-22T14:50:27.023Z,2.93
2018-03-22T14:52:59.515Z,3.40
2018-03-22T14:55:31.998Z,3.90
2018-03-22T14:58:04.496Z,4.10
2018-03-22T15:00:36.968Z,4.27
2018-03-22T15:03:09.579Z,4.10
2018-03-22T15:05:42.110Z,3.80
2018-03-22T15:08:14.656Z,4.00
2018-03-22T15:10:47.155Z,3.90
2018-03-22T15:13:19.686Z,3.77
2018-03-22T15:15:52.159Z,3.63
2018-03-22T15:18:24.659Z,3.73
2018-03-22T15:20:57.140Z,3.50
2018-03-22T15:23:29.637Z,3.60
2018-03-22T15:26:02.124Z,3.57
2018-03-22T15:28:34.623Z,3.63
2018-03-22T15:31:07.129Z,3.83
2018-03-22T15:33:39.665Z,4.30
2018-03-22T15:36:12.247Z,4.07
2018-03-22T15:38:44.792Z,3.47
2018-03-22T15:41:17.317Z,3.10
2018-03-22T15:43:49.818Z,3.10
2018-03-22T15:46:22.299Z,2.67
2018-03-22T15:48:54.786Z,3.30
2018-03-22T15:51:27.254Z,2.60
2018-03-22T15:53:59.750Z,2.77
2018-03-22T15:56:32.222Z,3.10
2018-03-22T15:59:04.748Z,3.30
2018-03-22T16:01:37.258Z,2.97
2018-03-22T16:04:09.781Z,2.87
2018-03-22T16:06:42.317Z,3.43
2018-03-22T16:09:14.827Z,2.90
2018-03-22T16:11:47.349Z,3.80
2018-03-22T16:14:19.852Z,2.70
2018-03-22T16:16:52.322Z,3.00
2018-03-22T16:19:24.812Z,2.80
2018-03-22T16:21:57.282Z,2.50
2018-03-22T16:24:29.783Z,3.23
2018-03-22T16:27:02.259Z,2.70
2018-03-22T16:29:34.759Z,2.33
2018-03-22T16:32:07.251Z,2.63
2018-03-22T16:34:39.844Z,2.30
2018-03-22T16:37:12.347Z,2.67
2018-03-22T16:39:44.865Z,2.87
2018-03-22T16:42:17.366Z,3.03
2018-03-22T16:44:49.866Z,3.00
2018-03-22T16:47:22.355Z,2.30
2018-03-22T16:49:54.846Z,4.20
2018-03-22T16:52:27.322Z,2.50
2018-03-22T16:54:59.814Z,4.83
2018-03-22T16:57:32.289Z,3.53
2018-03-22T17:00:04.819Z,3.00
2018-03-22T17:02:37.312Z,2.30
2018-03-22T17:05:09.890Z,2.40
2018-03-22T17:07:42.431Z,2.50
2018-03-22T17:10:14.971Z,2.33
2018-03-22T17:12:47.561Z,1.90
2018-03-22T17:15:20.076Z,2.40
2018-03-22T17:17:52.572Z,2.30
2018-03-22T17:20:25.066Z,2.37
2018-03-22T17:22:57.534Z,2.07
2018-03-22T17:25:30.023Z,2.37
2018-03-22T17:28:02.490Z,1.93
2018-03-22T17:30:34.982Z,2.47
2018-03-22T17:33:07.476Z,2.37
2018-03-22T17:35:40.059Z,2.20
2018-03-22T17:38:12.592Z,1.90
2018-03-22T17:40:45.138Z,2.03
2018-03-22T17:43:17.650Z,2.07
2018-03-22T17:45:50.171Z,2.30
2018-03-22T17:48:22.687Z,2.50
2018-03-22T17:50:55.174Z,2.30
2018-03-22T17:53:27.677Z,2.20
2018-03-22T17:56:00.147Z,1.80
2018-03-22T17:58:32.630Z,1.70
2018-03-22T18:01:05.100Z,1.83
2018-03-22T18:03:37.664Z,1.90
2018-03-22T18:06:10.252Z,2.10
2018-03-22T18:08:42.809Z,1.83
2018-03-22T18:11:15.340Z,2.30
2018-03-22T18:13:47.878Z,2.00
2018-03-22T18:16:20.355Z,2.23
2018-03-22T18:18:52.851Z,2.23
2018-03-22T18:21:25.324Z,2.17
2018-03-22T18:23:57.812Z,2.30
2018-03-22T18:26:30.283Z,2.30
2018-03-22T18:29:02.775Z,2.30
2018-03-22T18:31:35.263Z,1.93
2018-03-22T18:34:07.895Z,1.97
2018-03-22T18:36:40.495Z,2.40
2018-03-22T18:39:13.164Z,2.70
2018-03-22T18:41:45.705Z,2.40
2018-03-22T18:44:18.256Z,2.50
2018-03-22T18:46:50.727Z,3.00
2018-03-22T18:49:23.236Z,3.20
2018-03-22T18:51:55.713Z,2.97
2018-03-22T18:54:28.219Z,3.10
2018-03-22T18:57:00.690Z,3.40
2018-03-22T18:59:33.181Z,3.30
2018-03-22T19:02:05.658Z,3.70
2018-03-22T19:04:38.220Z,3.60
2018-03-22T19:07:10.756Z,3.50
2018-03-22T19:09:43.434Z,3.50
2018-03-22T19:12:15.994Z,3.60
2018-03-22T19:14:48.599Z,3.50
2018-03-22T19:17:21.094Z,3.63
2018-03-22T19:19:53.582Z,3.70
2018-03-22T19:22:26.057Z,3.63
2018-03-22T19:24:58.551Z,3.87
2018-03-22T19:27:31.036Z,3.93
2018-03-22T19:30:03.529Z,4.00
2018-03-22T19:32:36.006Z,4.10
2018-03-22T19:35:08.615Z,4.00
2018-03-22T19:37:41.136Z,4.00
2018-03-22T19:40:13.665Z,3.73
2018-03-22T19:42:46.187Z,3.40
2018-03-22T19:45:18.706Z,3.90
2018-03-22T19:47:51.179Z,3.73
2018-03-22T19:50:23.694Z,3.63
2018-03-22T19:52:56.220Z,3.80
2018-03-22T19:55:28.812Z,4.30
2018-03-22T19:58:01.290Z,3.77
2018-03-22T20:00:33.790Z,4.30
2018-03-22T20:03:06.323Z,4.43
2018-03-22T20:05:38.911Z,4.40
2018-03-22T20:08:11.543Z,4.70
2018-03-22T20:10:44.492Z,4.30
2018-03-22T20:13:17.094Z,4.43
2018-03-22T20:15:49.631Z,4.60
2018-03-22T20:18:22.116Z,4.20
2018-03-22T20:20:54.751Z,5.07
2018-03-22T20:23:27.231Z,4.80
2018-03-22T20:25:59.743Z,4.53
2018-03-22T20:28:32.295Z,4.83
2018-03-22T20:31:04.839Z,6.00
2018-03-22T20:33:37.365Z,8.00
2018-03-22T20:36:09.976Z,5.90
2018-03-22T20:38:42.520Z,6.07
2018-03-22T20:41:15.174Z,6.03
2018-03-22T20:43:47.735Z,6.70
2018-03-22T20:46:20.246Z,7.00
2018-03-22T20:48:52.721Z,6.23
2018-03-22T20:51:25.223Z,6.90
2018-03-22T20:53:57.691Z,6.47
2018-03-22T20:56:30.186Z,6.67
2018-03-22T20:59:02.658Z,7.07
2018-03-22T21:01:35.146Z,6.27
2018-03-22T21:04:07.641Z,7.00
2018-03-22T21:06:40.224Z,8.33
2018-03-22T21:09:12.744Z,6.50
2018-03-22T21:11:45.286Z,5.93
2018-03-22T21:14:17.804Z,7.13
2018-03-22T21:16:50.315Z,6.33
2018-03-22T21:19:22.782Z,5.60
2018-03-22T21:21:55.276Z,5.73
2018-03-22T21:24:27.753Z,5.67
2018-03-22T21:27:00.246Z,5.40
2018-03-22T21:29:32.718Z,5.20
2018-03-22T21:32:05.214Z,5.20
2018-03-22T21:34:37.777Z,4.97
2018-03-22T21:37:10.417Z,7.20
2018-03-22T21:39:43.062Z,9.10
2018-03-22T21:42:15.762Z,8.67
2018-03-22T21:44:48.347Z,7.97
2018-03-22T21:47:32.435Z,6.83
2018-03-22T21:50:04.943Z,7.13
2018-03-22T21:52:43.455Z,5.43
2018-03-22T21:55:15.996Z,5.97
2018-03-22T21:57:48.535Z,6.53
2018-03-22T22:00:21.031Z,6.37
2018-03-22T22:02:53.505Z,5.17
2018-03-22T22:05:26.015Z,4.90
2018-03-22T22:07:58.541Z,5.33
2018-03-22T22:10:31.030Z,4.83
2018-03-22T22:13:03.510Z,4.60
2018-03-22T22:15:36.027Z,4.50
2018-03-22T22:18:09.533Z,4.60
2018-03-22T22:20:42.253Z,4.53
2018-03-22T22:23:14.763Z,4.37
2018-03-22T22:25:47.282Z,4.60
2018-03-22T22:28:19.832Z,4.73
2018-03-22T22:30:52.330Z,4.60
2018-03-22T22:33:24.804Z,4.10
2018-03-22T22:35:57.296Z,4.70
2018-03-22T22:38:29.774Z,4.47
2018-03-22T22:41:02.284Z,4.33
2018-03-22T22:43:34.754Z,4.73
2018-03-22T22:46:07.270Z,4.40
2018-03-22T22:48:39.913Z,4.83
2018-03-22T22:51:12.657Z,5.37
2018-03-22T22:53:45.207Z,4.77
2018-03-22T22:56:17.779Z,3.97
2018-03-22T22:58:50.299Z,4.37
2018-03-22T23:01:22.798Z,4.40
2018-03-22T23:03:55.272Z,4.37
2018-03-22T23:06:27.782Z,4.30
2018-03-22T23:09:00.258Z,4.63
2018-03-22T23:11:32.755Z,4.53
2018-03-22T23:14:05.223Z,4.53
2018-03-22T23:16:38.007Z,4.03
2018-03-22T23:19:10.681Z,3.93
2018-03-22T23:21:43.304Z,4.20
2018-03-22T23:24:15.864Z,4.00
2018-03-22T23:26:48.423Z,4.00
2018-03-22T23:29:20.894Z,3.47
2018-03-22T23:31:53.424Z,3.97
2018-03-22T23:34:25.895Z,4.00
2018-03-22T23:36:58.395Z,3.80
2018-03-22T23:39:30.865Z,3.80
2018-03-22T23:42:03.354Z,3.73
2018-03-22T23:44:35.818Z,3.77
2018-03-22T23:47:08.376Z,3.70
2018-03-22T23:49:40.990Z,3.73
2018-03-22T23:52:13.538Z,4.10
2018-03-22T23:54:46.146Z,4.10
2018-03-22T23:57:18.682Z,3.57
2018-03-22T23:59:51.178Z,3.77
